Terminal Aerodrome Forecast
Issued by NWS Jacksonville, FL

Home | Current Version | Previous Version | Text Only | Print | Product List | Glossary On
Versions: 1 2 3 4 5 6 7 8 9 10 11 12 13 14
000
FTUS42 KJAX 201900 AAA
TAFSSI
TAF AMD
KSSI 201925Z 2019/2118 01010KT P6SM OVC080
     FM202100 02010KT P6SM BKN008 OVC080
     FM202300 02010KT P6SM OVC008
     FM210300 02008KT 6SM BR VCSH OVC006=

USA.gov is the U.S. government's official web portal to all federal, state and local government web resources and services.